sensor_id;sensor_type;location;lat;lon;timestamp;P1;durP1;ratioP1;P2;durP2;ratioP2
61093;SDS011;46976;52.942;6.810;2022-11-22T00:02:09;39.28;;;25.10;;
61093;SDS011;46976;52.942;6.810;2022-11-22T00:04:36;44.47;;;26.80;;
61093;SDS011;46976;52.942;6.810;2022-11-22T00:07:02;44.85;;;26.85;;
61093;SDS011;46976;52.942;6.810;2022-11-22T00:09:28;41.95;;;25.63;;
61093;SDS011;46976;52.942;6.810;2022-11-22T00:11:55;42.25;;;26.42;;
61093;SDS011;46976;52.942;6.810;2022-11-22T00:14:21;19.27;;;7.80;;
61093;SDS011;46976;52.942;6.810;2022-11-22T00:16:47;41.67;;;26.80;;
61093;SDS011;46976;52.942;6.810;2022-11-22T00:19:13;38.05;;;25.30;;
61093;SDS011;46976;52.942;6.810;2022-11-22T00:21:39;38.10;;;26.00;;
61093;SDS011;46976;52.942;6.810;2022-11-22T00:24:05;39.25;;;26.67;;
61093;SDS011;46976;52.942;6.810;2022-11-22T00:26:31;43.75;;;27.77;;
61093;SDS011;46976;52.942;6.810;2022-11-22T00:28:57;38.20;;;26.70;;
61093;SDS011;46976;52.942;6.810;2022-11-22T00:31:23;48.08;;;28.75;;
61093;SDS011;46976;52.942;6.810;2022-11-22T00:33:49;46.53;;;29.83;;
61093;SDS011;46976;52.942;6.810;2022-11-22T00:36:16;48.03;;;30.38;;
61093;SDS011;46976;52.942;6.810;2022-11-22T00:38:42;49.08;;;30.58;;
61093;SDS011;46976;52.942;6.810;2022-11-22T00:41:09;45.88;;;29.13;;
61093;SDS011;46976;52.942;6.810;2022-11-22T00:43:35;43.58;;;28.17;;
61093;SDS011;46976;52.942;6.810;2022-11-22T00:46:01;46.40;;;28.35;;
61093;SDS011;46976;52.942;6.810;2022-11-22T00:48:27;42.22;;;25.15;;
61093;SDS011;46976;52.942;6.810;2022-11-22T00:50:53;40.72;;;25.08;;
61093;SDS011;46976;52.942;6.810;2022-11-22T00:53:20;42.80;;;26.40;;
61093;SDS011;46976;52.942;6.810;2022-11-22T00:55:46;46.42;;;27.85;;
61093;SDS011;46976;52.942;6.810;2022-11-22T00:58:12;42.50;;;27.35;;
61093;SDS011;46976;52.942;6.810;2022-11-22T01:00:38;50.45;;;28.50;;
61093;SDS011;46976;52.942;6.810;2022-11-22T01:03:05;44.60;;;25.05;;
61093;SDS011;46976;52.942;6.810;2022-11-22T01:05:31;49.83;;;29.13;;
61093;SDS011;46976;52.942;6.810;2022-11-22T01:07:57;45.88;;;27.77;;
61093;SDS011;46976;52.942;6.810;2022-11-22T01:10:23;45.78;;;26.60;;
61093;SDS011;46976;52.942;6.810;2022-11-22T01:12:49;47.88;;;28.27;;
61093;SDS011;46976;52.942;6.810;2022-11-22T01:15:15;47.67;;;27.95;;
61093;SDS011;46976;52.942;6.810;2022-11-22T01:17:41;48.78;;;27.95;;
61093;SDS011;46976;52.942;6.810;2022-11-22T01:20:07;43.47;;;26.95;;
61093;SDS011;46976;52.942;6.810;2022-11-22T01:22:34;37.30;;;20.50;;
61093;SDS011;46976;52.942;6.810;2022-11-22T01:25:00;44.55;;;27.25;;
61093;SDS011;46976;52.942;6.810;2022-11-22T01:27:26;43.35;;;27.60;;
61093;SDS011;46976;52.942;6.810;2022-11-22T01:29:52;42.22;;;26.92;;
61093;SDS011;46976;52.942;6.810;2022-11-22T01:32:18;40.70;;;25.85;;
61093;SDS011;46976;52.942;6.810;2022-11-22T01:34:44;39.35;;;26.08;;
61093;SDS011;46976;52.942;6.810;2022-11-22T01:37:10;42.17;;;27.50;;
61093;SDS011;46976;52.942;6.810;2022-11-22T01:39:36;37.83;;;25.15;;
61093;SDS011;46976;52.942;6.810;2022-11-22T01:42:02;22.15;;;9.02;;
61093;SDS011;46976;52.942;6.810;2022-11-22T01:44:29;38.45;;;25.10;;
61093;SDS011;46976;52.942;6.810;2022-11-22T01:47:02;37.35;;;24.85;;
61093;SDS011;46976;52.942;6.810;2022-11-22T01:49:34;37.58;;;25.17;;
61093;SDS011;46976;52.942;6.810;2022-11-22T01:52:08;34.15;;;23.65;;
61093;SDS011;46976;52.942;6.810;2022-11-22T01:54:36;36.92;;;25.30;;
61093;SDS011;46976;52.942;6.810;2022-11-22T01:57:04;21.13;;;7.72;;
61093;SDS011;46976;52.942;6.810;2022-11-22T01:59:31;36.00;;;24.85;;
61093;SDS011;46976;52.942;6.810;2022-11-22T02:01:58;38.10;;;25.15;;
61093;SDS011;46976;52.942;6.810;2022-11-22T02:04:24;34.40;;;23.58;;
61093;SDS011;46976;52.942;6.810;2022-11-22T02:09:21;36.25;;;24.50;;
61093;SDS011;46976;52.942;6.810;2022-11-22T02:11:48;43.53;;;27.08;;
61093;SDS011;46976;52.942;6.810;2022-11-22T02:14:15;35.45;;;23.77;;
61093;SDS011;46976;52.942;6.810;2022-11-22T02:16:43;43.28;;;26.77;;
61093;SDS011;46976;52.942;6.810;2022-11-22T02:19:15;37.03;;;26.02;;
61093;SDS011;46976;52.942;6.810;2022-11-22T02:21:43;38.85;;;25.33;;
61093;SDS011;46976;52.942;6.810;2022-11-22T02:24:18;35.08;;;24.48;;
61093;SDS011;46976;52.942;6.810;2022-11-22T02:26:45;35.15;;;24.20;;
61093;SDS011;46976;52.942;6.810;2022-11-22T02:29:12;38.63;;;25.45;;
61093;SDS011;46976;52.942;6.810;2022-11-22T02:31:42;37.17;;;24.25;;
61093;SDS011;46976;52.942;6.810;2022-11-22T02:34:09;39.95;;;25.83;;
61093;SDS011;46976;52.942;6.810;2022-11-22T02:36:37;36.65;;;24.35;;
61093;SDS011;46976;52.942;6.810;2022-11-22T02:39:03;36.97;;;24.67;;
61093;SDS011;46976;52.942;6.810;2022-11-22T02:41:30;45.47;;;26.77;;
61093;SDS011;46976;52.942;6.810;2022-11-22T02:43:56;38.22;;;25.60;;
61093;SDS011;46976;52.942;6.810;2022-11-22T02:46:22;40.28;;;25.65;;
61093;SDS011;46976;52.942;6.810;2022-11-22T02:48:49;44.65;;;27.15;;
61093;SDS011;46976;52.942;6.810;2022-11-22T02:51:16;41.38;;;25.50;;
61093;SDS011;46976;52.942;6.810;2022-11-22T02:53:44;37.60;;;25.77;;
61093;SDS011;46976;52.942;6.810;2022-11-22T02:56:10;39.03;;;25.63;;
61093;SDS011;46976;52.942;6.810;2022-11-22T02:58:36;38.25;;;25.67;;
61093;SDS011;46976;52.942;6.810;2022-11-22T03:01:03;46.10;;;27.67;;
61093;SDS011;46976;52.942;6.810;2022-11-22T03:03:29;34.83;;;25.67;;
61093;SDS011;46976;52.942;6.810;2022-11-22T03:05:55;43.38;;;26.92;;
61093;SDS011;46976;52.942;6.810;2022-11-22T03:08:21;45.88;;;27.52;;
61093;SDS011;46976;52.942;6.810;2022-11-22T03:10:47;39.17;;;25.55;;
61093;SDS011;46976;52.942;6.810;2022-11-22T03:13:13;47.08;;;27.08;;
61093;SDS011;46976;52.942;6.810;2022-11-22T03:15:40;38.97;;;25.95;;
61093;SDS011;46976;52.942;6.810;2022-11-22T03:18:06;38.63;;;25.02;;
61093;SDS011;46976;52.942;6.810;2022-11-22T03:20:32;40.67;;;25.98;;
61093;SDS011;46976;52.942;6.810;2022-11-22T03:22:59;48.65;;;28.00;;
61093;SDS011;46976;52.942;6.810;2022-11-22T03:25:25;43.08;;;25.90;;
61093;SDS011;46976;52.942;6.810;2022-11-22T03:27:51;36.72;;;25.70;;
61093;SDS011;46976;52.942;6.810;2022-11-22T03:30:18;39.50;;;24.63;;
61093;SDS011;46976;52.942;6.810;2022-11-22T03:32:44;38.70;;;25.80;;
61093;SDS011;46976;52.942;6.810;2022-11-22T03:35:10;38.47;;;25.02;;
61093;SDS011;46976;52.942;6.810;2022-11-22T03:37:36;47.97;;;28.05;;
61093;SDS011;46976;52.942;6.810;2022-11-22T03:40:02;39.10;;;25.40;;
61093;SDS011;46976;52.942;6.810;2022-11-22T03:42:28;39.47;;;26.40;;
61093;SDS011;46976;52.942;6.810;2022-11-22T03:44:54;45.13;;;26.83;;
61093;SDS011;46976;52.942;6.810;2022-11-22T03:47:20;40.10;;;26.05;;
61093;SDS011;46976;52.942;6.810;2022-11-22T03:49:47;44.00;;;25.83;;
61093;SDS011;46976;52.942;6.810;2022-11-22T03:52:13;37.40;;;23.85;;
61093;SDS011;46976;52.942;6.810;2022-11-22T03:54:39;38.17;;;24.77;;
61093;SDS011;46976;52.942;6.810;2022-11-22T03:57:05;41.75;;;25.15;;
61093;SDS011;46976;52.942;6.810;2022-11-22T03:59:31;37.03;;;24.55;;
61093;SDS011;46976;52.942;6.810;2022-11-22T04:01:57;43.40;;;26.25;;
61093;SDS011;46976;52.942;6.810;2022-11-22T04:04:23;36.60;;;23.98;;
61093;SDS011;46976;52.942;6.810;2022-11-22T04:06:49;35.80;;;22.80;;
61093;SDS011;46976;52.942;6.810;2022-11-22T04:09:16;34.55;;;23.70;;
61093;SDS011;46976;52.942;6.810;2022-11-22T04:11:42;35.22;;;23.50;;
61093;SDS011;46976;52.942;6.810;2022-11-22T04:14:09;46.28;;;29.20;;
61093;SDS011;46976;52.942;6.810;2022-11-22T04:16:55;48.92;;;29.67;;
61093;SDS011;46976;52.942;6.810;2022-11-22T04:19:21;44.38;;;28.17;;
61093;SDS011;46976;52.942;6.810;2022-11-22T04:21:47;26.80;;;10.02;;
61093;SDS011;46976;52.942;6.810;2022-11-22T04:24:13;44.13;;;28.80;;
61093;SDS011;46976;52.942;6.810;2022-11-22T04:26:58;41.88;;;28.17;;
61093;SDS011;46976;52.942;6.810;2022-11-22T04:29:24;43.47;;;28.13;;
61093;SDS011;46976;52.942;6.810;2022-11-22T04:31:50;42.40;;;27.85;;
61093;SDS011;46976;52.942;6.810;2022-11-22T04:34:35;44.00;;;27.83;;
61093;SDS011;46976;52.942;6.810;2022-11-22T04:37:01;40.63;;;28.17;;
61093;SDS011;46976;52.942;6.810;2022-11-22T04:39:28;49.25;;;30.38;;
61093;SDS011;46976;52.942;6.810;2022-11-22T04:41:54;42.83;;;28.58;;
61093;SDS011;46976;52.942;6.810;2022-11-22T04:44:40;47.90;;;28.27;;
61093;SDS011;46976;52.942;6.810;2022-11-22T04:47:07;43.08;;;27.02;;
61093;SDS011;46976;52.942;6.810;2022-11-22T04:49:33;44.22;;;27.77;;
61093;SDS011;46976;52.942;6.810;2022-11-22T04:51:59;46.65;;;27.85;;
61093;SDS011;46976;52.942;6.810;2022-11-22T04:54:44;47.95;;;28.20;;
61093;SDS011;46976;52.942;6.810;2022-11-22T04:57:10;49.17;;;28.75;;
61093;SDS011;46976;52.942;6.810;2022-11-22T04:59:36;52.08;;;30.17;;
61093;SDS011;46976;52.942;6.810;2022-11-22T05:02:02;44.95;;;27.60;;
61093;SDS011;46976;52.942;6.810;2022-11-22T05:04:28;47.85;;;27.00;;
61093;SDS011;46976;52.942;6.810;2022-11-22T05:06:54;43.72;;;26.13;;
61093;SDS011;46976;52.942;6.810;2022-11-22T05:09:23;39.75;;;26.70;;
61093;SDS011;46976;52.942;6.810;2022-11-22T05:11:49;45.25;;;27.55;;
61093;SDS011;46976;52.942;6.810;2022-11-22T05:14:15;43.15;;;26.38;;
61093;SDS011;46976;52.942;6.810;2022-11-22T05:16:41;46.15;;;27.02;;
61093;SDS011;46976;52.942;6.810;2022-11-22T05:19:07;38.83;;;25.63;;
61093;SDS011;46976;52.942;6.810;2022-11-22T05:21:33;40.97;;;26.58;;
61093;SDS011;46976;52.942;6.810;2022-11-22T05:24:01;41.38;;;25.40;;
61093;SDS011;46976;52.942;6.810;2022-11-22T05:26:28;39.95;;;25.77;;
61093;SDS011;46976;52.942;6.810;2022-11-22T05:28:55;41.20;;;25.83;;
61093;SDS011;46976;52.942;6.810;2022-11-22T05:31:22;39.78;;;24.58;;
61093;SDS011;46976;52.942;6.810;2022-11-22T05:33:49;43.60;;;25.55;;
61093;SDS011;46976;52.942;6.810;2022-11-22T05:36:16;45.47;;;26.50;;
61093;SDS011;46976;52.942;6.810;2022-11-22T05:38:42;41.88;;;26.02;;
61093;SDS011;46976;52.942;6.810;2022-11-22T05:41:09;41.55;;;25.83;;
61093;SDS011;46976;52.942;6.810;2022-11-22T05:43:35;41.05;;;24.83;;
61093;SDS011;46976;52.942;6.810;2022-11-22T05:48:31;41.67;;;26.33;;
61093;SDS011;46976;52.942;6.810;2022-11-22T05:50:57;42.40;;;25.75;;
61093;SDS011;46976;52.942;6.810;2022-11-22T05:53:23;40.55;;;26.33;;
61093;SDS011;46976;52.942;6.810;2022-11-22T05:55:49;39.05;;;24.17;;
61093;SDS011;46976;52.942;6.810;2022-11-22T05:58:15;42.20;;;25.77;;
61093;SDS011;46976;52.942;6.810;2022-11-22T06:00:41;40.45;;;25.77;;
61093;SDS011;46976;52.942;6.810;2022-11-22T06:03:07;41.65;;;25.92;;
61093;SDS011;46976;52.942;6.810;2022-11-22T06:05:33;40.53;;;25.25;;
61093;SDS011;46976;52.942;6.810;2022-11-22T06:08:00;43.53;;;25.75;;
61093;SDS011;46976;52.942;6.810;2022-11-22T06:10:27;45.92;;;27.95;;
61093;SDS011;46976;52.942;6.810;2022-11-22T06:12:53;37.50;;;24.30;;
61093;SDS011;46976;52.942;6.810;2022-11-22T06:15:20;41.90;;;25.15;;
61093;SDS011;46976;52.942;6.810;2022-11-22T06:17:46;36.83;;;25.38;;
61093;SDS011;46976;52.942;6.810;2022-11-22T06:20:12;43.58;;;25.67;;
61093;SDS011;46976;52.942;6.810;2022-11-22T06:22:38;42.25;;;26.50;;
61093;SDS011;46976;52.942;6.810;2022-11-22T06:25:05;42.17;;;25.40;;
61093;SDS011;46976;52.942;6.810;2022-11-22T06:27:31;40.85;;;24.50;;
61093;SDS011;46976;52.942;6.810;2022-11-22T06:29:57;42.00;;;24.80;;
61093;SDS011;46976;52.942;6.810;2022-11-22T06:32:23;41.03;;;25.00;;
61093;SDS011;46976;52.942;6.810;2022-11-22T06:34:49;36.67;;;24.40;;
61093;SDS011;46976;52.942;6.810;2022-11-22T06:37:15;47.65;;;25.48;;
61093;SDS011;46976;52.942;6.810;2022-11-22T06:39:41;45.17;;;26.80;;
61093;SDS011;46976;52.942;6.810;2022-11-22T06:42:07;44.35;;;26.85;;
61093;SDS011;46976;52.942;6.810;2022-11-22T06:44:33;41.92;;;27.33;;
61093;SDS011;46976;52.942;6.810;2022-11-22T06:46:59;39.20;;;25.77;;
61093;SDS011;46976;52.942;6.810;2022-11-22T06:49:25;41.50;;;25.52;;
61093;SDS011;46976;52.942;6.810;2022-11-22T06:51:51;42.53;;;26.35;;
61093;SDS011;46976;52.942;6.810;2022-11-22T06:54:18;45.05;;;26.90;;
61093;SDS011;46976;52.942;6.810;2022-11-22T06:56:44;44.15;;;25.63;;
61093;SDS011;46976;52.942;6.810;2022-11-22T06:59:10;42.63;;;25.85;;
61093;SDS011;46976;52.942;6.810;2022-11-22T07:01:36;53.10;;;28.33;;
61093;SDS011;46976;52.942;6.810;2022-11-22T07:04:03;45.35;;;27.27;;
61093;SDS011;46976;52.942;6.810;2022-11-22T07:06:30;41.88;;;25.98;;
61093;SDS011;46976;52.942;6.810;2022-11-22T07:08:57;43.78;;;26.25;;
61093;SDS011;46976;52.942;6.810;2022-11-22T07:11:25;44.00;;;26.05;;
61093;SDS011;46976;52.942;6.810;2022-11-22T07:13:52;43.05;;;26.98;;
61093;SDS011;46976;52.942;6.810;2022-11-22T07:16:19;18.98;;;8.45;;
61093;SDS011;46976;52.942;6.810;2022-11-22T07:18:46;40.78;;;24.42;;
61093;SDS011;46976;52.942;6.810;2022-11-22T07:21:19;20.65;;;7.72;;
61093;SDS011;46976;52.942;6.810;2022-11-22T07:23:47;37.92;;;23.67;;
61093;SDS011;46976;52.942;6.810;2022-11-22T07:26:13;42.50;;;26.15;;
61093;SDS011;46976;52.942;6.810;2022-11-22T07:28:39;49.97;;;26.20;;
61093;SDS011;46976;52.942;6.810;2022-11-22T07:31:07;55.65;;;27.85;;
61093;SDS011;46976;52.942;6.810;2022-11-22T07:33:33;41.47;;;25.73;;
61093;SDS011;46976;52.942;6.810;2022-11-22T07:36:04;43.25;;;24.45;;
61093;SDS011;46976;52.942;6.810;2022-11-22T07:38:30;41.08;;;23.67;;
61093;SDS011;46976;52.942;6.810;2022-11-22T07:40:56;43.03;;;23.58;;
61093;SDS011;46976;52.942;6.810;2022-11-22T07:43:22;32.33;;;19.40;;
61093;SDS011;46976;52.942;6.810;2022-11-22T07:45:49;28.25;;;16.23;;
61093;SDS011;46976;52.942;6.810;2022-11-22T07:48:15;27.58;;;15.82;;
61093;SDS011;46976;52.942;6.810;2022-11-22T07:50:41;28.38;;;14.57;;
61093;SDS011;46976;52.942;6.810;2022-11-22T07:53:08;29.30;;;14.88;;
61093;SDS011;46976;52.942;6.810;2022-11-22T07:55:34;29.67;;;14.43;;
61093;SDS011;46976;52.942;6.810;2022-11-22T07:58:01;27.15;;;14.18;;
61093;SDS011;46976;52.942;6.810;2022-11-22T08:00:27;29.33;;;14.40;;
61093;SDS011;46976;52.942;6.810;2022-11-22T08:02:54;26.45;;;13.13;;
61093;SDS011;46976;52.942;6.810;2022-11-22T08:05:20;26.98;;;12.82;;
61093;SDS011;46976;52.942;6.810;2022-11-22T08:07:50;22.20;;;12.57;;
61093;SDS011;46976;52.942;6.810;2022-11-22T08:10:16;21.27;;;11.57;;
61093;SDS011;46976;52.942;6.810;2022-11-22T08:12:43;23.60;;;11.50;;
61093;SDS011;46976;52.942;6.810;2022-11-22T08:15:09;22.25;;;11.38;;
61093;SDS011;46976;52.942;6.810;2022-11-22T08:17:36;14.73;;;4.20;;
61093;SDS011;46976;52.942;6.810;2022-11-22T08:20:03;20.98;;;10.88;;
61093;SDS011;46976;52.942;6.810;2022-11-22T08:22:29;21.67;;;8.98;;
61093;SDS011;46976;52.942;6.810;2022-11-22T08:24:55;19.48;;;8.25;;
61093;SDS011;46976;52.942;6.810;2022-11-22T08:27:22;24.45;;;8.30;;
61093;SDS011;46976;52.942;6.810;2022-11-22T08:29:48;21.80;;;7.32;;
61093;SDS011;46976;52.942;6.810;2022-11-22T08:32:14;19.92;;;6.95;;
61093;SDS011;46976;52.942;6.810;2022-11-22T08:34:40;21.85;;;7.50;;
61093;SDS011;46976;52.942;6.810;2022-11-22T08:37:06;17.52;;;6.72;;
61093;SDS011;46976;52.942;6.810;2022-11-22T08:39:33;19.13;;;6.35;;
61093;SDS011;46976;52.942;6.810;2022-11-22T08:41:59;15.48;;;5.85;;
61093;SDS011;46976;52.942;6.810;2022-11-22T08:44:25;18.15;;;5.90;;
61093;SDS011;46976;52.942;6.810;2022-11-22T08:46:51;14.95;;;4.93;;
61093;SDS011;46976;52.942;6.810;2022-11-22T08:49:17;16.45;;;5.68;;
61093;SDS011;46976;52.942;6.810;2022-11-22T08:51:43;16.92;;;5.78;;
61093;SDS011;46976;52.942;6.810;2022-11-22T08:54:11;15.82;;;5.20;;
61093;SDS011;46976;52.942;6.810;2022-11-22T08:56:37;17.60;;;4.90;;
61093;SDS011;46976;52.942;6.810;2022-11-22T08:59:03;16.77;;;4.78;;
61093;SDS011;46976;52.942;6.810;2022-11-22T09:01:29;13.65;;;4.28;;
61093;SDS011;46976;52.942;6.810;2022-11-22T09:03:55;17.05;;;4.50;;
61093;SDS011;46976;52.942;6.810;2022-11-22T09:06:21;13.90;;;4.22;;
61093;SDS011;46976;52.942;6.810;2022-11-22T09:08:47;16.13;;;4.60;;
61093;SDS011;46976;52.942;6.810;2022-11-22T09:11:15;16.30;;;4.22;;
61093;SDS011;46976;52.942;6.810;2022-11-22T09:13:41;15.30;;;4.70;;
61093;SDS011;46976;52.942;6.810;2022-11-22T09:16:09;14.80;;;4.47;;
61093;SDS011;46976;52.942;6.810;2022-11-22T09:18:35;16.70;;;4.25;;
61093;SDS011;46976;52.942;6.810;2022-11-22T09:21:06;15.02;;;3.92;;
61093;SDS011;46976;52.942;6.810;2022-11-22T09:23:32;14.80;;;4.00;;
61093;SDS011;46976;52.942;6.810;2022-11-22T09:25:59;16.58;;;4.68;;
61093;SDS011;46976;52.942;6.810;2022-11-22T09:28:26;11.73;;;3.50;;
61093;SDS011;46976;52.942;6.810;2022-11-22T09:33:24;15.02;;;3.90;;
61093;SDS011;46976;52.942;6.810;2022-11-22T09:35:50;14.93;;;3.58;;
61093;SDS011;46976;52.942;6.810;2022-11-22T09:38:16;12.93;;;3.60;;
61093;SDS011;46976;52.942;6.810;2022-11-22T09:40:46;16.70;;;3.80;;
61093;SDS011;46976;52.942;6.810;2022-11-22T09:48:20;13.65;;;3.40;;
61093;SDS011;46976;52.942;6.810;2022-11-22T09:51:01;15.32;;;3.90;;
61093;SDS011;46976;52.942;6.810;2022-11-22T09:53:31;14.93;;;3.92;;
61093;SDS011;46976;52.942;6.810;2022-11-22T09:56:01;15.05;;;4.00;;
61093;SDS011;46976;52.942;6.810;2022-11-22T09:58:39;14.90;;;3.97;;
61093;SDS011;46976;52.942;6.810;2022-11-22T10:01:20;16.27;;;3.65;;
61093;SDS011;46976;52.942;6.810;2022-11-22T10:06:37;14.32;;;3.55;;
61093;SDS011;46976;52.942;6.810;2022-11-22T10:14:49;13.50;;;3.38;;
61093;SDS011;46976;52.942;6.810;2022-11-22T10:19:57;13.35;;;3.20;;
61093;SDS011;46976;52.942;6.810;2022-11-22T10:22:29;12.65;;;3.00;;
61093;SDS011;46976;52.942;6.810;2022-11-22T10:24:57;11.13;;;2.90;;
61093;SDS011;46976;52.942;6.810;2022-11-22T10:27:26;14.18;;;3.10;;
61093;SDS011;46976;52.942;6.810;2022-11-22T10:30:00;12.55;;;2.78;;
61093;SDS011;46976;52.942;6.810;2022-11-22T10:37:35;13.05;;;3.15;;
61093;SDS011;46976;52.942;6.810;2022-11-22T10:45:24;10.38;;;2.50;;
61093;SDS011;46976;52.942;6.810;2022-11-22T10:47:58;12.98;;;2.55;;
61093;SDS011;46976;52.942;6.810;2022-11-22T10:50:47;11.48;;;2.80;;
61093;SDS011;46976;52.942;6.810;2022-11-22T10:53:19;11.50;;;2.50;;
61093;SDS011;46976;52.942;6.810;2022-11-22T10:55:49;10.38;;;2.47;;
61093;SDS011;46976;52.942;6.810;2022-11-22T11:00:56;9.57;;;2.85;;
61093;SDS011;46976;52.942;6.810;2022-11-22T11:03:34;9.43;;;2.28;;
61093;SDS011;46976;52.942;6.810;2022-11-22T11:06:15;9.98;;;2.40;;
61093;SDS011;46976;52.942;6.810;2022-11-22T11:08:53;9.88;;;2.42;;
61093;SDS011;46976;52.942;6.810;2022-11-22T11:11:21;11.40;;;2.80;;
61093;SDS011;46976;52.942;6.810;2022-11-22T11:13:51;11.75;;;2.50;;
61093;SDS011;46976;52.942;6.810;2022-11-22T11:16:23;10.70;;;2.60;;
61093;SDS011;46976;52.942;6.810;2022-11-22T11:18:51;7.10;;;2.10;;
61093;SDS011;46976;52.942;6.810;2022-11-22T11:21:18;11.93;;;2.70;;
61093;SDS011;46976;52.942;6.810;2022-11-22T11:23:44;10.23;;;2.30;;
61093;SDS011;46976;52.942;6.810;2022-11-22T11:26:25;9.85;;;2.33;;
61093;SDS011;46976;52.942;6.810;2022-11-22T11:29:19;10.32;;;2.47;;
61093;SDS011;46976;52.942;6.810;2022-11-22T11:31:41;8.82;;;2.35;;
61093;SDS011;46976;52.942;6.810;2022-11-22T11:34:42;9.88;;;2.47;;
61093;SDS011;46976;52.942;6.810;2022-11-22T11:37:00;9.88;;;2.20;;
61093;SDS011;46976;52.942;6.810;2022-11-22T11:39:34;8.77;;;2.28;;
61093;SDS011;46976;52.942;6.810;2022-11-22T11:42:00;7.72;;;1.90;;
61093;SDS011;46976;52.942;6.810;2022-11-22T11:44:45;9.45;;;2.28;;
61093;SDS011;46976;52.942;6.810;2022-11-22T11:47:16;9.93;;;2.30;;
61093;SDS011;46976;52.942;6.810;2022-11-22T11:49:45;10.82;;;2.50;;
61093;SDS011;46976;52.942;6.810;2022-11-22T11:52:17;7.75;;;2.08;;
61093;SDS011;46976;52.942;6.810;2022-11-22T11:54:45;9.85;;;2.22;;
61093;SDS011;46976;52.942;6.810;2022-11-22T11:57:18;10.70;;;2.50;;
61093;SDS011;46976;52.942;6.810;2022-11-22T11:59:45;13.02;;;2.53;;
61093;SDS011;46976;52.942;6.810;2022-11-22T12:04:51;10.05;;;2.53;;
61093;SDS011;46976;52.942;6.810;2022-11-22T12:07:19;13.02;;;2.38;;
61093;SDS011;46976;52.942;6.810;2022-11-22T12:09:46;9.88;;;2.22;;
61093;SDS011;46976;52.942;6.810;2022-11-22T12:14:50;11.10;;;2.60;;
61093;SDS011;46976;52.942;6.810;2022-11-22T12:17:23;7.25;;;2.10;;
61093;SDS011;46976;52.942;6.810;2022-11-22T12:20:01;8.63;;;1.92;;
61093;SDS011;46976;52.942;6.810;2022-11-22T12:27:42;9.18;;;2.00;;
61093;SDS011;46976;52.942;6.810;2022-11-22T12:30:12;9.15;;;2.40;;
61093;SDS011;46976;52.942;6.810;2022-11-22T12:32:46;8.45;;;1.80;;
61093;SDS011;46976;52.942;6.810;2022-11-22T12:35:17;8.27;;;1.90;;
61093;SDS011;46976;52.942;6.810;2022-11-22T12:38:02;11.23;;;2.10;;
61093;SDS011;46976;52.942;6.810;2022-11-22T12:40:31;10.90;;;2.55;;
61093;SDS011;46976;52.942;6.810;2022-11-22T12:43:04;10.60;;;2.20;;
61093;SDS011;46976;52.942;6.810;2022-11-22T12:45:33;9.35;;;2.00;;
61093;SDS011;46976;52.942;6.810;2022-11-22T12:48:03;8.77;;;1.95;;
61093;SDS011;46976;52.942;6.810;2022-11-22T12:51:05;9.93;;;2.28;;
61093;SDS011;46976;52.942;6.810;2022-11-22T12:58:44;11.82;;;2.45;;
61093;SDS011;46976;52.942;6.810;2022-11-22T13:06:07;7.28;;;1.88;;
61093;SDS011;46976;52.942;6.810;2022-11-22T13:08:42;8.80;;;1.90;;
61093;SDS011;46976;52.942;6.810;2022-11-22T13:11:18;20.95;;;2.40;;
61093;SDS011;46976;52.942;6.810;2022-11-22T13:13:47;14.75;;;2.13;;
61093;SDS011;46976;52.942;6.810;2022-11-22T13:16:14;8.25;;;1.70;;
61093;SDS011;46976;52.942;6.810;2022-11-22T13:18:42;12.23;;;1.90;;
61093;SDS011;46976;52.942;6.810;2022-11-22T13:23:46;18.80;;;2.10;;
61093;SDS011;46976;52.942;6.810;2022-11-22T13:28:48;10.48;;;2.15;;
61093;SDS011;46976;52.942;6.810;2022-11-22T13:31:16;15.15;;;2.10;;
61093;SDS011;46976;52.942;6.810;2022-11-22T13:33:58;15.70;;;2.22;;
61093;SDS011;46976;52.942;6.810;2022-11-22T13:38:54;6.65;;;1.70;;
61093;SDS011;46976;52.942;6.810;2022-11-22T13:41:28;10.63;;;1.40;;
61093;SDS011;46976;52.942;6.810;2022-11-22T13:43:56;6.53;;;1.33;;
61093;SDS011;46976;52.942;6.810;2022-11-22T13:52:04;6.72;;;1.63;;
61093;SDS011;46976;52.942;6.810;2022-11-22T13:57:25;6.78;;;1.70;;
61093;SDS011;46976;52.942;6.810;2022-11-22T14:02:34;5.75;;;1.50;;
61093;SDS011;46976;52.942;6.810;2022-11-22T14:05:00;6.15;;;1.20;;
61093;SDS011;46976;52.942;6.810;2022-11-22T14:07:36;6.72;;;1.40;;
61093;SDS011;46976;52.942;6.810;2022-11-22T14:10:04;6.05;;;1.20;;
61093;SDS011;46976;52.942;6.810;2022-11-22T14:12:53;4.97;;;1.50;;
61093;SDS011;46976;52.942;6.810;2022-11-22T14:23:49;6.22;;;1.50;;
61093;SDS011;46976;52.942;6.810;2022-11-22T14:31:26;7.97;;;1.70;;
61093;SDS011;46976;52.942;6.810;2022-11-22T14:34:12;6.47;;;1.90;;
61093;SDS011;46976;52.942;6.810;2022-11-22T14:36:39;6.45;;;1.83;;
61093;SDS011;46976;52.942;6.810;2022-11-22T14:41:50;8.30;;;2.10;;
61093;SDS011;46976;52.942;6.810;2022-11-22T14:44:20;6.70;;;2.03;;
61093;SDS011;46976;52.942;6.810;2022-11-22T14:46:55;8.93;;;2.60;;
61093;SDS011;46976;52.942;6.810;2022-11-22T14:49:39;8.55;;;2.30;;
61093;SDS011;46976;52.942;6.810;2022-11-22T14:52:13;9.32;;;2.42;;
61093;SDS011;46976;52.942;6.810;2022-11-22T14:54:44;8.15;;;2.13;;
61093;SDS011;46976;52.942;6.810;2022-11-22T14:57:13;8.63;;;2.20;;
61093;SDS011;46976;52.942;6.810;2022-11-22T15:13:07;7.68;;;2.25;;
61093;SDS011;46976;52.942;6.810;2022-11-22T15:15:39;8.18;;;1.90;;
61093;SDS011;46976;52.942;6.810;2022-11-22T15:18:17;9.57;;;2.13;;
61093;SDS011;46976;52.942;6.810;2022-11-22T15:20:46;7.88;;;2.05;;
61093;SDS011;46976;52.942;6.810;2022-11-22T15:23:22;9.02;;;2.35;;
61093;SDS011;46976;52.942;6.810;2022-11-22T15:26:02;8.23;;;2.03;;
61093;SDS011;46976;52.942;6.810;2022-11-22T15:28:28;7.90;;;1.90;;
61093;SDS011;46976;52.942;6.810;2022-11-22T15:31:00;7.03;;;1.88;;
61093;SDS011;46976;52.942;6.810;2022-11-22T15:33:33;7.38;;;1.70;;
61093;SDS011;46976;52.942;6.810;2022-11-22T15:38:45;9.07;;;1.85;;
61093;SDS011;46976;52.942;6.810;2022-11-22T15:41:15;8.57;;;1.90;;
61093;SDS011;46976;52.942;6.810;2022-11-22T15:43:42;8.68;;;1.83;;
61093;SDS011;46976;52.942;6.810;2022-11-22T15:46:09;8.30;;;1.75;;
61093;SDS011;46976;52.942;6.810;2022-11-22T15:48:38;6.22;;;1.65;;
61093;SDS011;46976;52.942;6.810;2022-11-22T15:58:32;9.85;;;2.17;;
61093;SDS011;46976;52.942;6.810;2022-11-22T16:01:00;8.25;;;2.05;;
61093;SDS011;46976;52.942;6.810;2022-11-22T16:03:28;7.55;;;1.90;;
61093;SDS011;46976;52.942;6.810;2022-11-22T16:06:01;9.02;;;2.17;;
61093;SDS011;46976;52.942;6.810;2022-11-22T16:08:28;6.50;;;1.60;;
61093;SDS011;46976;52.942;6.810;2022-11-22T16:10:54;8.55;;;2.30;;
61093;SDS011;46976;52.942;6.810;2022-11-22T16:18:29;9.43;;;2.05;;
61093;SDS011;46976;52.942;6.810;2022-11-22T16:21:14;8.02;;;1.92;;
61093;SDS011;46976;52.942;6.810;2022-11-22T16:23:43;9.50;;;2.22;;
61093;SDS011;46976;52.942;6.810;2022-11-22T16:26:18;7.93;;;1.83;;
61093;SDS011;46976;52.942;6.810;2022-11-22T16:28:49;8.63;;;2.05;;
61093;SDS011;46976;52.942;6.810;2022-11-22T16:31:16;7.88;;;2.00;;
61093;SDS011;46976;52.942;6.810;2022-11-22T16:33:44;7.32;;;2.20;;
61093;SDS011;46976;52.942;6.810;2022-11-22T16:36:11;7.70;;;2.17;;
61093;SDS011;46976;52.942;6.810;2022-11-22T16:38:41;6.25;;;2.08;;
61093;SDS011;46976;52.942;6.810;2022-11-22T16:41:11;11.07;;;2.15;;